Time;durP1;ratioP1;P1;durP2;ratioP2;P2;SDS_P1;SDS_P2;PMS_P1;PMS_P2;Temp;Humidity;BMP_temperature;BMP_pressure;BME280_temperature;BME280_humidity;BME280_pressure;Samples;Min_cycle;Max_cycle;Signal;HPM_P1;HPM_P2
2022/01/17 00:00:15;;;;;;;13.45;3.40;;;5.40;99.90;;;;;;6192325;23;20028;-86
2022/01/17 00:02:41;;;;;;;16.10;3.33;;;5.40;99.90;;;;;;6223366;23;20016;-86
2022/01/17 00:05:09;;;;;;;13.38;3.20;;;5.40;99.90;;;;;;6193538;23;20047;-86
2022/01/17 00:07:36;;;;;;;16.85;2.85;;;5.40;99.90;;;;;;6215173;23;20016;-86
2022/01/17 00:10:03;;;;;;;17.98;2.60;;;5.40;99.90;;;;;;6188895;23;20024;-86
2022/01/17 00:12:32;;;;;;;15.20;2.47;;;5.50;99.90;;;;;;6214032;23;20024;-86
2022/01/17 00:14:57;;;;;;;8.30;2.67;;;5.40;99.90;;;;;;6213364;23;20462;-86
2022/01/17 00:17:36;;;;;;;15.80;2.70;;;5.30;99.90;;;;;;6187875;23;20024;-86
2022/01/17 00:20:17;;;;;;;10.82;2.60;;;5.40;99.90;;;;;;6168375;23;20025;-86
2022/01/17 00:22:44;;;;;;;11.40;2.83;;;5.30;99.90;;;;;;6166930;23;20027;-86
2022/01/17 00:25:10;;;;;;;16.25;3.55;;;5.20;99.90;;;;;;6141037;23;20036;-86
2022/01/17 00:27:36;;;;;;;17.33;2.80;;;5.20;99.90;;;;;;6188207;23;20065;-86
2022/01/17 00:30:03;;;;;;;11.20;2.42;;;5.20;99.90;;;;;;6164189;23;20707;-86
2022/01/17 00:32:30;;;;;;;18.10;2.85;;;5.20;99.90;;;;;;6186189;23;20025;-86
2022/01/17 00:34:59;;;;;;;18.40;3.00;;;5.20;99.90;;;;;;6214823;23;20032;-86
2022/01/17 00:37:25;;;;;;;19.40;3.72;;;5.20;99.90;;;;;;6164611;23;20016;-86
2022/01/17 00:39:50;;;;;;;12.13;2.55;;;5.20;99.90;;;;;;6189015;23;20468;-86
2022/01/17 00:42:16;;;;;;;15.65;2.80;;;5.20;99.90;;;;;;6189812;23;20016;-86
2022/01/17 00:44:42;;;;;;;13.90;3.17;;;5.20;99.90;;;;;;6164124;23;20012;-86
2022/01/17 00:47:08;;;;;;;17.15;3.53;;;5.20;99.90;;;;;;6164104;23;20050;-86
2022/01/17 00:49:34;;;;;;;19.15;2.78;;;5.20;99.90;;;;;;6187402;23;20025;-86
2022/01/17 00:52:00;;;;;;;14.90;2.53;;;5.20;99.90;;;;;;6187137;23;20030;-86
2022/01/17 00:54:25;;;;;;;12.05;2.58;;;5.20;99.90;;;;;;6213801;23;20047;-86
2022/01/17 00:56:51;;;;;;;16.77;2.88;;;5.40;99.90;;;;;;6138212;23;20017;-86
2022/01/17 00:59:17;;;;;;;13.05;3.53;;;5.10;99.90;;;;;;6188123;23;20021;-87
2022/01/17 01:01:43;;;;;;;11.48;2.83;;;5.20;99.90;;;;;;6189740;23;20071;-86
2022/01/17 01:04:08;;;;;;;13.38;2.33;;;5.50;99.90;;;;;;6190461;23;20138;-86
2022/01/17 01:06:36;;;;;;;14.52;2.75;;;5.20;99.90;;;;;;6194123;23;20012;-86
2022/01/17 01:09:03;;;;;;;14.93;2.15;;;5.30;99.90;;;;;;6196348;23;20020;-86
2022/01/17 01:11:29;;;;;;;13.45;2.53;;;5.10;99.90;;;;;;6220478;23;20030;-86
2022/01/17 01:13:54;;;;;;;12.93;3.28;;;5.00;99.90;;;;;;6194779;23;20015;-86
2022/01/17 01:29:34;;;;;;;15.82;3.33;;;5.00;99.90;;;;;;6218802;23;20043;-86
2022/01/17 01:32:05;;;;;;;17.27;3.25;;;5.10;99.90;;;;;;6194782;23;20020;-86
2022/01/17 01:34:38;;;;;;;18.52;2.92;;;5.10;99.90;;;;;;6195112;23;20062;-86
2022/01/17 01:37:04;;;;;;;22.98;3.08;;;5.40;99.90;;;;;;6170426;23;20590;-86
2022/01/17 01:39:32;;;;;;;11.82;1.90;;;5.10;99.90;;;;;;6218023;23;20336;-87
2022/01/17 01:41:59;;;;;;;13.13;2.42;;;5.10;99.90;;;;;;6217532;23;20121;-86
2022/01/17 01:44:26;;;;;;;24.35;2.65;;;5.10;99.90;;;;;;6218232;23;20023;-85
2022/01/17 01:46:53;;;;;;;16.20;2.80;;;5.00;99.90;;;;;;6191507;23;20063;-86
2022/01/17 01:49:21;;;;;;;10.15;2.55;;;5.00;99.90;;;;;;6193031;23;20027;-85
2022/01/17 01:51:47;;;;;;;15.90;3.10;;;5.00;99.90;;;;;;6219585;23;20024;-86
2022/01/17 01:54:13;;;;;;;16.42;2.72;;;5.00;99.90;;;;;;6195051;23;20038;-86
2022/01/17 01:56:43;;;;;;;18.35;3.67;;;5.00;99.90;;;;;;6219271;23;20027;-86
2022/01/17 01:59:09;;;;;;;15.27;3.55;;;5.00;99.90;;;;;;6218674;23;20024;-85
2022/01/17 02:01:36;;;;;;;9.65;2.85;;;5.30;99.90;;;;;;6170197;23;20081;-86
2022/01/17 02:04:03;;;;;;;8.48;2.65;;;5.60;99.90;;;;;;6195161;23;20047;-85
2022/01/17 02:06:29;;;;;;;15.07;2.90;;;4.90;99.90;;;;;;6195923;23;20317;-86
2022/01/17 02:08:55;;;;;;;21.45;3.60;;;4.90;99.90;;;;;;6219908;23;20020;-87
2022/01/17 02:11:21;;;;;;;14.95;2.83;;;5.10;99.90;;;;;;6195032;23;20020;-86
2022/01/17 02:13:46;;;;;;;13.60;3.08;;;4.90;99.90;;;;;;6195379;23;20063;-86
2022/01/17 02:16:14;;;;;;;21.17;3.58;;;4.90;99.90;;;;;;6194621;23;20481;-86
2022/01/17 02:18:45;;;;;;;13.38;2.83;;;4.80;99.90;;;;;;6220205;23;20012;-86
2022/01/17 02:23:41;;;;;;;9.77;2.60;;;4.80;99.90;;;;;;6245684;23;20069;-86
2022/01/17 02:26:08;;;;;;;17.42;2.95;;;4.80;99.90;;;;;;6195701;23;20031;-86
2022/01/17 02:28:36;;;;;;;15.50;3.22;;;4.70;99.90;;;;;;6194276;23;20074;-86
2022/01/17 02:31:04;;;;;;;15.13;3.42;;;5.10;99.90;;;;;;6219266;23;20051;-87
2022/01/17 02:33:31;;;;;;;10.85;2.63;;;4.70;99.90;;;;;;6222792;23;20004;-87
2022/01/17 02:35:57;;;;;;;11.25;2.65;;;4.60;99.90;;;;;;6196051;23;20016;-86
2022/01/17 02:38:23;;;;;;;13.55;2.30;;;4.60;99.90;;;;;;6196487;23;20086;-86
2022/01/17 02:40:52;;;;;;;14.95;3.13;;;5.20;99.90;;;;;;6195620;23;20458;-87
2022/01/17 02:43:21;;;;;;;15.43;2.63;;;4.60;99.90;;;;;;6196277;23;20024;-86
2022/01/17 02:48:31;;;;;;;17.00;3.35;;;4.60;99.90;;;;;;6247032;23;20022;-87
2022/01/17 02:50:58;;;;;;;22.27;3.10;;;4.50;99.90;;;;;;6221652;23;20016;-86
2022/01/17 02:53:25;;;;;;;19.50;2.97;;;4.90;99.90;;;;;;6196163;23;20444;-86
2022/01/17 02:56:06;;;;;;;12.18;3.25;;;4.50;99.90;;;;;;6246360;23;20114;-85
2022/01/17 02:58:34;;;;;;;15.00;2.97;;;4.50;99.90;;;;;;6221233;23;20022;-86
2022/01/17 03:01:06;;;;;;;17.45;3.00;;;4.50;99.90;;;;;;6195806;23;20023;-86
2022/01/17 03:03:32;;;;;;;14.18;2.80;;;4.50;99.90;;;;;;6221470;23;20016;-86
2022/01/17 03:05:58;;;;;;;12.63;3.42;;;4.40;99.90;;;;;;6171441;23;20016;-86
2022/01/17 03:08:28;;;;;;;16.88;2.70;;;4.40;99.90;;;;;;6196543;23;20012;-86
2022/01/17 03:10:55;;;;;;;10.68;2.80;;;4.40;99.90;;;;;;6221505;23;20016;-86
2022/01/17 03:13:26;;;;;;;16.52;3.17;;;4.30;99.90;;;;;;6196740;23;20091;-86
2022/01/17 03:15:56;;;;;;;12.55;3.38;;;4.40;99.90;;;;;;6221849;23;20016;-85
2022/01/17 03:18:31;;;;;;;15.35;3.15;;;4.30;99.90;;;;;;6220871;23;20023;-86
2022/01/17 03:20:58;;;;;;;20.30;3.20;;;5.10;99.90;;;;;;6221099;23;20533;-85
2022/01/17 03:23:24;;;;;;;17.90;3.42;;;4.30;99.90;;;;;;6246064;23;20012;-85
2022/01/17 03:25:50;;;;;;;11.30;2.97;;;5.40;99.90;;;;;;6196224;23;20016;-86
2022/01/17 03:28:16;;;;;;;13.95;3.60;;;5.20;99.90;;;;;;6221768;23;20017;-86
2022/01/17 03:30:42;;;;;;;9.93;3.00;;;4.20;99.90;;;;;;6195778;23;20078;-86
2022/01/17 03:33:12;;;;;;;11.88;2.50;;;4.70;99.90;;;;;;6196342;23;20356;-86
2022/01/17 03:35:39;;;;;;;16.13;3.17;;;4.20;99.90;;;;;;6221539;23;20408;-86
2022/01/17 03:38:10;;;;;;;17.13;2.95;;;4.20;99.90;;;;;;6221511;23;20082;-86
2022/01/17 03:40:37;;;;;;;10.30;2.50;;;4.20;99.90;;;;;;6221319;23;20016;-86
2022/01/17 03:43:04;;;;;;;19.60;3.50;;;4.50;99.90;;;;;;6196413;23;20022;-86
2022/01/17 03:45:31;;;;;;;13.73;3.13;;;4.30;99.90;;;;;;6221648;23;20012;-86
2022/01/17 03:47:57;;;;;;;15.40;2.92;;;4.20;99.90;;;;;;6220224;23;20023;-86
2022/01/17 03:50:24;;;;;;;20.30;3.25;;;5.10;99.90;;;;;;6221977;23;20016;-86
2022/01/17 03:52:50;;;;;;;8.13;2.75;;;4.30;99.90;;;;;;6196630;23;20040;-85
2022/01/17 03:55:18;;;;;;;11.18;2.65;;;4.30;99.90;;;;;;6221336;23;20587;-86
2022/01/17 03:57:45;;;;;;;9.60;3.08;;;4.30;99.90;;;;;;6220824;23;20095;-86
2022/01/17 04:00:20;;;;;;;11.88;2.90;;;4.40;99.90;;;;;;6220487;23;20016;-86
2022/01/17 04:02:46;;;;;;;16.92;2.70;;;4.40;99.90;;;;;;6220446;23;20023;-86
2022/01/17 04:05:12;;;;;;;15.98;3.28;;;4.40;99.90;;;;;;6220622;23;20020;-86
2022/01/17 04:07:38;;;;;;;14.02;2.22;;;4.40;99.90;;;;;;6195167;23;20024;-86
2022/01/17 04:10:04;;;;;;;10.55;2.63;;;4.40;99.90;;;;;;6194885;23;20160;-85
2022/01/17 04:12:30;;;;;;;10.57;2.25;;;4.40;99.90;;;;;;6195447;23;20024;-86
2022/01/17 04:14:56;;;;;;;17.52;3.60;;;4.40;99.90;;;;;;6196784;23;20020;-86
2022/01/17 04:17:27;;;;;;;14.93;2.70;;;4.50;99.90;;;;;;6199568;23;20020;-86
2022/01/17 04:19:59;;;;;;;19.92;3.10;;;4.50;99.90;;;;;;6214198;23;20107;-86
2022/01/17 04:22:26;;;;;;;9.85;2.38;;;4.70;99.90;;;;;;6232860;23;20016;-86
2022/01/17 04:24:51;;;;;;;11.45;3.80;;;4.70;99.90;;;;;;6230461;23;20012;-86
2022/01/17 04:27:17;;;;;;;12.40;3.55;;;4.50;99.90;;;;;;6197620;23;20044;-85
2022/01/17 04:29:43;;;;;;;8.77;2.25;;;5.40;99.90;;;;;;6196251;23;20035;-86
2022/01/17 04:32:08;;;;;;;14.55;2.92;;;4.50;99.90;;;;;;6195313;23;20016;-86
2022/01/17 04:34:34;;;;;;;17.20;3.45;;;4.50;99.90;;;;;;6220918;23;20027;-86
2022/01/17 04:37:02;;;;;;;10.23;2.90;;;4.50;99.90;;;;;;6195249;23;20447;-86
2022/01/17 04:39:28;;;;;;;19.05;2.80;;;4.50;99.90;;;;;;6196861;23;20016;-86
2022/01/17 04:41:53;;;;;;;19.27;3.65;;;4.50;99.90;;;;;;6195217;23;20027;-86
2022/01/17 04:47:03;;;;;;;14.93;3.40;;;4.50;99.90;;;;;;6206680;23;20412;-86
2022/01/17 04:49:29;;;;;;;14.35;3.17;;;4.40;99.90;;;;;;6192861;23;20055;-86
2022/01/17 04:51:55;;;;;;;11.40;2.97;;;5.00;99.90;;;;;;6195024;23;20020;-87
2022/01/17 04:56:53;;;;;;;11.52;2.70;;;5.20;99.90;;;;;;6269503;22;20035;-86
2022/01/17 04:59:19;;;;;;;11.73;3.30;;;4.40;99.90;;;;;;6219096;23;20024;-86
2022/01/17 05:01:45;;;;;;;9.25;2.40;;;4.70;99.90;;;;;;6245115;23;20018;-86
2022/01/17 05:04:10;;;;;;;16.00;2.90;;;4.50;99.90;;;;;;6244799;22;20012;-86
2022/01/17 05:06:36;;;;;;;13.05;2.75;;;4.50;99.90;;;;;;6219732;23;20068;-86
2022/01/17 05:09:03;;;;;;;13.32;2.88;;;4.50;99.90;;;;;;6190890;23;20016;-86
2022/01/17 05:11:30;;;;;;;9.77;2.38;;;4.50;99.90;;;;;;6215710;23;20127;-86
2022/01/17 05:13:56;;;;;;;19.38;3.25;;;5.20;99.90;;;;;;6190984;23;20047;-85
2022/01/17 05:16:29;;;;;;;12.75;2.90;;;4.60;99.90;;;;;;6189504;23;20031;-85
2022/01/17 05:21:39;;;;;;;15.63;2.97;;;4.60;99.90;;;;;;6194327;23;20524;-86
2022/01/17 05:24:05;;;;;;;11.75;2.65;;;5.20;99.90;;;;;;6193776;23;20095;-86
2022/01/17 05:26:30;;;;;;;11.80;2.72;;;4.60;99.90;;;;;;6219896;23;20332;-86
2022/01/17 05:28:56;;;;;;;13.80;3.08;;;4.70;99.90;;;;;;6194456;23;20098;-86
2022/01/17 05:31:22;;;;;;;13.02;2.75;;;4.70;99.90;;;;;;6221190;23;20016;-86
2022/01/17 05:33:47;;;;;;;17.55;3.05;;;4.70;99.90;;;;;;6220744;23;20467;-85
2022/01/17 05:36:13;;;;;;;14.52;3.08;;;4.80;99.90;;;;;;6219996;23;20119;-86
2022/01/17 05:38:39;;;;;;;15.65;3.00;;;4.80;99.90;;;;;;6170958;23;20016;-86
2022/01/17 05:41:04;;;;;;;12.07;2.90;;;5.00;99.90;;;;;;6169580;23;20012;-86
2022/01/17 05:43:30;;;;;;;12.00;3.03;;;4.80;99.90;;;;;;6220774;23;20020;-86
2022/01/17 05:45:56;;;;;;;13.30;2.85;;;4.80;99.90;;;;;;6195890;23;20012;-87
2022/01/17 05:48:22;;;;;;;11.45;2.42;;;4.90;99.90;;;;;;6195378;23;20024;-86
2022/01/17 05:50:47;;;;;;;18.08;3.15;;;4.90;99.90;;;;;;6194789;23;20039;-86
2022/01/17 05:53:14;;;;;;;12.60;2.85;;;5.70;99.90;;;;;;6195530;23;20016;-86
2022/01/17 05:55:40;;;;;;;10.15;2.85;;;4.90;99.90;;;;;;6220524;23;20019;-86
2022/01/17 05:58:06;;;;;;;18.30;3.22;;;5.00;99.90;;;;;;6194657;23;20070;-87
2022/01/17 06:00:32;;;;;;;15.65;3.10;;;5.00;99.90;;;;;;6220206;23;20020;-86
2022/01/17 06:02:58;;;;;;;13.18;2.53;;;5.00;99.90;;;;;;6194942;23;20023;-86
2022/01/17 06:05:24;;;;;;;11.07;2.58;;;5.00;99.90;;;;;;6194753;23;20016;-86
2022/01/17 06:07:50;;;;;;;16.55;3.28;;;5.00;99.90;;;;;;6195325;23;20101;-86
2022/01/17 06:10:15;;;;;;;21.33;3.78;;;5.00;99.90;;;;;;6194530;23;20024;-86
2022/01/17 06:12:41;;;;;;;15.68;3.22;;;5.00;99.90;;;;;;6193785;23;20044;-86
2022/01/17 06:15:07;;;;;;;16.02;3.58;;;5.00;99.90;;;;;;6193787;23;20016;-86
2022/01/17 06:17:33;;;;;;;16.02;3.63;;;5.10;99.90;;;;;;6194393;23;20099;-86
2022/01/17 06:19:59;;;;;;;10.27;3.00;;;5.10;99.90;;;;;;6193382;23;20492;-87
2022/01/17 06:22:25;;;;;;;17.17;3.83;;;5.20;99.90;;;;;;6193810;23;20017;-87
2022/01/17 06:24:50;;;;;;;14.68;3.40;;;5.90;99.90;;;;;;6192967;23;20657;-86
2022/01/17 06:27:17;;;;;;;17.00;3.90;;;5.30;99.90;;;;;;6194450;23;20018;-86
2022/01/17 06:29:43;;;;;;;15.85;4.07;;;5.20;99.90;;;;;;6220182;23;20024;-87
2022/01/17 06:32:09;;;;;;;21.55;4.03;;;5.00;99.90;;;;;;6194858;23;20085;-87
2022/01/17 06:34:34;;;;;;;15.43;3.95;;;5.30;99.90;;;;;;6194971;23;20073;-87
2022/01/17 06:37:00;;;;;;;13.30;3.65;;;5.20;99.90;;;;;;6192080;23;20023;-87
2022/01/17 06:39:26;;;;;;;12.68;3.78;;;5.20;99.90;;;;;;6193400;23;20020;-86
2022/01/17 06:41:51;;;;;;;18.48;4.28;;;5.20;99.90;;;;;;6192494;23;20107;-87
2022/01/17 06:44:17;;;;;;;14.82;4.75;;;5.20;99.90;;;;;;6218088;23;20012;-87
2022/01/17 06:46:43;;;;;;;19.80;4.25;;;5.30;99.90;;;;;;6194799;23;20035;-87
2022/01/17 06:49:09;;;;;;;18.80;4.43;;;5.30;99.90;;;;;;6194822;23;20023;-86
2022/01/17 06:51:36;;;;;;;14.40;3.97;;;5.30;99.90;;;;;;6194125;23;20024;-86
2022/01/17 06:54:02;;;;;;;14.63;3.70;;;5.30;99.90;;;;;;6195571;23;20110;-86
2022/01/17 06:56:27;;;;;;;17.45;4.22;;;5.30;99.90;;;;;;6194698;23;20012;-86
2022/01/17 06:58:54;;;;;;;14.68;4.30;;;5.30;99.90;;;;;;6194375;23;20076;-86
2022/01/17 07:01:21;;;;;;;16.27;4.18;;;5.30;99.90;;;;;;6194955;23;20023;-86
2022/01/17 07:03:48;;;;;;;17.45;4.68;;;5.30;99.90;;;;;;6220088;23;20008;-87
2022/01/17 07:06:15;;;;;;;21.67;4.05;;;6.00;99.90;;;;;;6219036;23;20020;-87
2022/01/17 07:08:40;;;;;;;18.00;5.07;;;5.40;99.90;;;;;;6196138;23;20016;-84
2022/01/17 07:11:06;;;;;;;19.70;5.28;;;5.40;99.90;;;;;;6191336;23;20039;-84
2022/01/17 07:13:32;;;;;;;15.98;5.22;;;5.40;99.90;;;;;;6216883;23;20099;-85
2022/01/17 07:15:58;;;;;;;18.15;4.85;;;5.40;99.90;;;;;;6183018;23;20020;-83
2022/01/17 07:18:24;;;;;;;21.38;5.05;;;6.00;99.90;;;;;;6160905;23;20556;-83
2022/01/17 07:20:50;;;;;;;23.33;5.47;;;5.40;99.90;;;;;;6186034;23;20016;-83
2022/01/17 07:23:18;;;;;;;23.52;5.85;;;6.20;99.90;;;;;;6181093;23;20019;-85
2022/01/17 07:25:44;;;;;;;21.63;4.97;;;5.40;99.90;;;;;;6184411;23;20016;-83
2022/01/17 07:28:12;;;;;;;20.33;4.82;;;5.90;99.90;;;;;;6208638;23;20012;-84
2022/01/17 07:30:38;;;;;;;24.77;5.20;;;5.40;99.90;;;;;;6185055;23;20046;-84
2022/01/17 07:33:05;;;;;;;25.88;6.57;;;5.40;99.90;;;;;;6185411;23;20324;-85
2022/01/17 07:35:32;;;;;;;17.25;5.22;;;5.50;99.90;;;;;;6208572;23;20059;-84
2022/01/17 07:37:58;;;;;;;20.33;5.60;;;5.50;99.90;;;;;;6209762;23;20552;-84
2022/01/17 07:40:24;;;;;;;18.25;4.85;;;5.50;99.90;;;;;;6210158;23;20024;-85
2022/01/17 07:42:50;;;;;;;23.05;5.68;;;6.20;99.90;;;;;;6160994;23;20459;-84
2022/01/17 07:45:18;;;;;;;23.88;6.82;;;5.50;99.90;;;;;;6208990;23;20013;-83
2022/01/17 07:50:22;;;;;;;12.57;5.30;;;5.60;99.90;;;;;;6233257;23;20085;-83
2022/01/17 07:52:49;;;;;;;26.45;5.50;;;6.00;99.90;;;;;;6210051;23;20020;-82
2022/01/17 07:55:15;;;;;;;19.23;5.38;;;5.70;99.90;;;;;;6230435;23;20485;-81
2022/01/17 07:57:41;;;;;;;23.70;5.10;;;5.80;99.90;;;;;;6205613;23;20462;-80
2022/01/17 08:00:10;;;;;;;20.92;5.30;;;5.80;99.90;;;;;;6183198;23;20027;-81
2022/01/17 08:02:36;;;;;;;17.27;5.28;;;5.80;99.90;;;;;;6210926;23;20229;-80
2022/01/17 08:05:03;;;;;;;22.90;5.20;;;5.80;99.90;;;;;;6200973;22;20023;-81
2022/01/17 08:07:29;;;;;;;18.77;4.55;;;5.90;99.90;;;;;;6239597;23;20015;-80
2022/01/17 08:09:55;;;;;;;22.90;4.97;;;5.80;99.90;;;;;;6237024;23;20053;-80
2022/01/17 08:12:20;;;;;;;15.90;4.93;;;6.40;99.90;;;;;;6174998;23;20020;-81
2022/01/17 08:14:46;;;;;;;20.48;5.47;;;5.90;99.90;;;;;;6190490;23;20455;-81
2022/01/17 08:17:12;;;;;;;21.33;5.03;;;5.90;99.90;;;;;;6188539;23;20027;-80
2022/01/17 08:19:38;;;;;;;20.33;4.85;;;5.90;99.90;;;;;;6193117;23;20016;-83
2022/01/17 08:22:06;;;;;;;23.77;5.03;;;6.00;99.90;;;;;;6171091;23;20107;-82
2022/01/17 08:24:33;;;;;;;19.00;4.53;;;6.00;99.90;;;;;;6216109;23;20046;-82
2022/01/17 08:27:00;;;;;;;24.38;5.78;;;6.00;99.90;;;;;;6192371;23;20012;-82
2022/01/17 08:29:26;;;;;;;28.30;6.65;;;6.20;99.90;;;;;;6190625;23;20020;-82
2022/01/17 08:31:53;;;;;;;26.63;6.22;;;6.00;99.90;;;;;;6214185;23;20514;-82
2022/01/17 08:34:18;;;;;;;20.48;6.57;;;6.00;99.90;;;;;;6216051;23;20020;-80
2022/01/17 08:36:45;;;;;;;20.75;4.60;;;6.20;99.90;;;;;;6218014;23;20020;-84
2022/01/17 08:39:12;;;;;;;22.15;4.88;;;6.10;99.90;;;;;;6223669;23;20031;-85
2022/01/17 08:41:42;;;;;;;27.15;5.57;;;6.00;99.90;;;;;;6234425;23;20023;-83
2022/01/17 08:44:12;;;;;;;27.55;5.28;;;6.20;99.90;;;;;;6211326;23;20100;-82
2022/01/17 08:46:38;;;;;;;29.83;5.82;;;6.10;99.90;;;;;;6233366;23;20003;-85
2022/01/17 08:49:05;;;;;;;20.05;4.47;;;6.10;99.90;;;;;;6236925;22;20016;-88
2022/01/17 08:51:31;;;;;;;15.73;4.25;;;6.10;99.90;;;;;;6209665;23;20080;-84
2022/01/17 08:53:57;;;;;;;19.02;4.90;;;6.10;99.90;;;;;;6204858;23;20016;-83
2022/01/17 08:56:22;;;;;;;25.33;5.32;;;6.10;99.90;;;;;;6208413;23;20046;-84
2022/01/17 08:58:48;;;;;;;28.77;5.88;;;6.20;99.90;;;;;;6205927;23;20020;-82
2022/01/17 09:01:14;;;;;;;27.48;5.93;;;6.20;99.90;;;;;;6206931;23;20020;-83
2022/01/17 09:03:41;;;;;;;22.10;5.13;;;6.20;99.90;;;;;;6207578;23;20000;-83
2022/01/17 09:06:07;;;;;;;20.80;4.53;;;6.20;99.90;;;;;;6185226;23;20035;-84
2022/01/17 09:08:32;;;;;;;23.98;5.35;;;6.20;99.90;;;;;;6185515;23;20016;-83
2022/01/17 09:10:58;;;;;;;27.95;5.53;;;6.20;99.90;;;;;;6198852;23;20017;-82
2022/01/17 09:13:25;;;;;;;20.48;4.35;;;6.30;99.90;;;;;;6206552;23;20011;-85
2022/01/17 09:15:52;;;;;;;28.20;5.35;;;6.20;99.90;;;;;;6208489;23;20050;-84
2022/01/17 09:18:19;;;;;;;22.70;4.55;;;6.30;99.90;;;;;;6229637;23;20121;-81
2022/01/17 09:20:46;;;;;;;19.10;4.13;;;6.30;99.90;;;;;;6218330;23;20020;-81
2022/01/17 09:23:12;;;;;;;24.75;5.38;;;6.30;99.90;;;;;;6220970;23;20091;-81
2022/01/17 09:25:38;;;;;;;27.92;4.85;;;6.40;99.90;;;;;;6198386;23;20324;-81
2022/01/17 09:28:04;;;;;;;30.45;4.57;;;6.40;99.90;;;;;;6226685;23;20048;-80
2022/01/17 09:30:30;;;;;;;22.60;4.22;;;6.40;99.90;;;;;;6194960;23;20757;-82
2022/01/17 09:32:56;;;;;;;18.25;4.32;;;6.50;99.90;;;;;;6197413;23;20024;-83
2022/01/17 09:35:22;;;;;;;31.08;5.78;;;6.50;99.90;;;;;;6179999;23;20020;-86
2022/01/17 09:37:49;;;;;;;19.83;4.90;;;6.50;99.90;;;;;;6209324;23;20027;-84
2022/01/17 09:40:15;;;;;;;22.45;4.53;;;6.50;99.90;;;;;;6232719;23;20016;-83
2022/01/17 09:42:40;;;;;;;25.13;5.78;;;6.50;99.90;;;;;;6231455;23;20046;-83
2022/01/17 09:45:10;;;;;;;32.20;5.18;;;6.50;99.90;;;;;;6222817;23;20012;-81
2022/01/17 09:47:37;;;;;;;26.00;4.38;;;6.60;99.90;;;;;;6218947;23;20012;-81
2022/01/17 09:50:09;;;;;;;30.08;5.70;;;7.00;99.90;;;;;;6194725;23;20230;-81
2022/01/17 09:52:37;;;;;;;;;;;6.70;99.90;;;;;;6217633;23;20023;-80
2022/01/17 09:55:22;;;;;;;35.58;5.63;;;6.70;99.90;;;;;;6211811;23;19938;-80
2022/01/17 09:58:06;;;;;;;29.85;5.47;;;6.80;99.90;;;;;;6226999;23;20008;-80
2022/01/17 10:00:38;;;;;;;25.20;5.00;;;6.90;99.90;;;;;;6243347;23;20043;-81
2022/01/17 10:03:07;;;;;;;26.23;5.10;;;7.00;99.90;;;;;;6242893;22;20008;-81
2022/01/17 10:05:35;;;;;;;29.98;6.05;;;7.20;99.90;;;;;;6242938;23;20105;-79
2022/01/17 10:08:04;;;;;;;27.52;6.50;;;7.30;99.90;;;;;;6217306;23;20011;-80
2022/01/17 10:10:36;;;;;;;22.95;5.20;;;7.80;99.90;;;;;;6243046;23;20035;-80
2022/01/17 10:13:23;;;;;;;36.60;6.18;;;7.30;99.90;;;;;;6241761;23;20064;-81
2022/01/17 10:16:08;;;;;;;29.00;5.85;;;7.40;99.90;;;;;;6215078;23;20028;-81
2022/01/17 10:18:44;;;;;;;19.08;4.45;;;7.50;99.90;;;;;;6186500;23;20027;-81
2022/01/17 10:21:20;;;;;;;23.55;5.57;;;7.50;99.90;;;;;;6183975;23;20016;-81
2022/01/17 10:26:58;;;;;;;24.50;4.82;;;7.60;99.90;;;;;;6207243;23;20024;-81
2022/01/17 10:34:54;;;;;;;36.33;7.50;;;8.10;99.90;;;;;;6218458;23;20048;-85
2022/01/17 10:37:25;;;;;;;28.83;5.53;;;8.20;99.90;;;;;;6227490;23;20035;-86
2022/01/17 10:40:04;;;;;;;31.00;5.50;;;8.20;99.90;;;;;;6232876;23;20023;-86
2022/01/17 10:42:43;;;;;;;23.67;5.68;;;8.30;99.90;;;;;;6235710;23;20051;-86
2022/01/17 10:45:18;;;;;;;29.67;5.18;;;8.40;99.90;;;;;;6211656;23;20020;-88
2022/01/17 10:47:45;;;;;;;26.25;5.90;;;8.60;99.90;;;;;;6196346;23;20020;-89
2022/01/17 10:50:11;;;;;;;28.60;5.55;;;8.60;99.90;;;;;;6201553;23;20026;-88
2022/01/17 10:52:47;;;;;;;33.10;5.85;;;8.70;99.90;;;;;;6207500;23;20024;-88
2022/01/17 10:55:25;;;;;;;27.33;6.10;;;8.60;99.90;;;;;;6235557;23;20020;-88
2022/01/17 10:57:57;;;;;;;33.00;5.40;;;8.70;99.90;;;;;;6233930;23;20019;-87
2022/01/17 11:00:30;;;;;;;30.00;5.22;;;8.90;99.90;;;;;;6231132;23;20024;-86
2022/01/17 11:02:58;;;;;;;27.40;5.32;;;8.90;99.90;;;;;;6234875;23;20061;-85
2022/01/17 11:05:27;;;;;;;27.02;5.60;;;9.00;99.90;;;;;;6230246;23;20020;-84
2022/01/17 11:07:56;;;;;;;34.65;6.15;;;9.10;99.90;;;;;;6187930;23;20051;-84
2022/01/17 11:10:28;;;;;;;28.17;5.57;;;9.00;99.90;;;;;;6213356;23;20054;-85
2022/01/17 11:12:57;;;;;;;24.23;5.75;;;9.00;99.90;;;;;;6210532;23;20024;-83
2022/01/17 11:15:24;;;;;;;33.20;6.50;;;8.90;99.90;;;;;;6233825;23;20022;-86
2022/01/17 11:17:53;;;;;;;29.67;6.95;;;8.90;99.90;;;;;;6237297;23;20031;-85
2022/01/17 11:20:21;;;;;;;23.67;5.22;;;8.90;99.90;;;;;;6210685;23;20011;-87
2022/01/17 11:22:50;;;;;;;30.90;5.75;;;8.90;99.90;;;;;;6235940;23;20096;-86
2022/01/17 11:25:22;;;;;;;29.48;6.25;;;8.80;99.90;;;;;;6233187;23;20426;-87
2022/01/17 11:27:49;;;;;;;26.30;5.82;;;8.90;99.90;;;;;;6234669;23;20027;-86
2022/01/17 11:30:16;;;;;;;28.70;6.63;;;8.90;99.90;;;;;;6204049;23;20046;-88
2022/01/17 11:32:47;;;;;;;24.27;5.63;;;8.90;99.90;;;;;;6230423;23;20016;-87
2022/01/17 11:35:16;;;;;;;37.78;6.43;;;8.90;99.90;;;;;;6205876;23;20016;-87
2022/01/17 11:37:46;;;;;;;29.02;5.43;;;8.80;99.90;;;;;;6236784;23;20034;-86
2022/01/17 11:40:13;;;;;;;31.90;6.05;;;8.80;99.90;;;;;;6234943;23;20097;-85
2022/01/17 11:42:48;;;;;;;27.05;5.50;;;8.80;99.90;;;;;;6233516;23;20020;-85
2022/01/17 11:45:22;;;;;;;37.35;6.28;;;8.90;99.90;;;;;;6212415;23;20020;-86
2022/01/17 11:47:53;;;;;;;35.67;5.82;;;8.90;99.90;;;;;;6183019;23;20519;-85
2022/01/17 11:50:28;;;;;;;30.52;6.30;;;8.90;99.90;;;;;;6212234;23;20027;-85
2022/01/17 11:52:55;;;;;;;33.85;6.20;;;8.90;99.90;;;;;;6204428;23;20098;-84
2022/01/17 11:55:42;;;;;;;35.17;6.68;;;8.90;99.90;;;;;;6184496;23;20027;-85
2022/01/17 11:58:27;;;;;;;31.10;6.65;;;8.90;99.90;;;;;;6180680;23;20020;-85
2022/01/17 12:00:59;;;;;;;32.08;5.75;;;8.90;99.90;;;;;;6207475;23;20346;-85
2022/01/17 12:03:45;;;;;;;38.72;7.05;;;8.90;99.90;;;;;;6182794;23;20095;-87
2022/01/17 12:06:34;;;;;;;35.92;6.05;;;8.90;99.90;;;;;;6210103;23;20134;-85
2022/01/17 12:09:20;;;;;;;27.67;5.25;;;8.80;99.90;;;;;;6184331;23;20024;-85
2022/01/17 12:11:52;;;;;;;28.25;6.70;;;8.80;99.90;;;;;;6181226;23;20027;-86
2022/01/17 12:14:32;;;;;;;30.00;5.90;;;8.80;99.90;;;;;;6178156;23;20020;-85
2022/01/17 12:17:20;;;;;;;20.42;4.95;;;8.90;99.90;;;;;;6205611;23;20024;-88
2022/01/17 12:20:09;;;;;;;28.27;6.03;;;9.00;99.90;;;;;;6208386;23;20108;-87
2022/01/17 12:22:46;;;;;;;26.83;5.88;;;8.90;99.90;;;;;;6184268;23;20020;-87
2022/01/17 12:25:25;;;;;;;33.58;7.50;;;8.90;99.90;;;;;;6177368;23;20387;-87
2022/01/17 12:28:17;;;;;;;27.27;6.03;;;8.90;99.90;;;;;;6180480;23;20107;-87
2022/01/17 12:30:52;;;;;;;32.63;6.33;;;8.80;99.90;;;;;;6220397;23;20020;-87
2022/01/17 12:33:40;;;;;;;27.45;5.43;;;8.80;99.90;;;;;;6202771;23;20023;-88
2022/01/17 12:36:28;;;;;;;37.45;7.32;;;8.90;99.90;;;;;;6205072;23;20123;-87
2022/01/17 12:39:31;;;;;;;31.58;5.72;;;9.00;99.90;;;;;;6205641;23;20023;-85
2022/01/17 12:42:02;;;;;;;31.30;6.20;;;9.00;99.90;;;;;;6205874;23;20102;-87
2022/01/17 12:44:31;;;;;;;26.30;4.72;;;9.10;99.90;;;;;;6181639;23;20020;-87
2022/01/17 12:47:04;;;;;;;29.88;5.50;;;9.10;99.90;;;;;;6206471;23;20628;-86
2022/01/17 12:49:32;;;;;;;28.65;6.25;;;9.20;99.90;;;;;;6204279;23;20440;-86
2022/01/17 12:51:59;;;;;;;18.98;4.57;;;9.20;99.90;;;;;;6203712;23;20373;-87
2022/01/17 12:54:35;;;;;;;26.73;6.97;;;9.30;99.90;;;;;;6176651;23;20015;-86
2022/01/17 12:57:01;;;;;;;21.10;5.07;;;9.20;99.90;;;;;;6178414;23;20070;-86
2022/01/17 12:59:27;;;;;;;19.00;4.63;;;9.10;99.90;;;;;;6177914;23;20077;-86
2022/01/17 13:01:59;;;;;;;21.58;4.78;;;9.50;99.90;;;;;;6177349;23;20094;-85
2022/01/17 13:04:26;;;;;;;23.33;4.90;;;9.10;99.90;;;;;;6200578;23;20051;-86
2022/01/17 13:06:52;;;;;;;19.83;5.05;;;9.10;99.90;;;;;;6200983;23;20016;-85
2022/01/17 13:09:21;;;;;;;25.15;5.22;;;9.00;99.90;;;;;;6176341;23;20035;-85
2022/01/17 13:11:48;;;;;;;25.42;6.43;;;9.00;99.90;;;;;;6203185;23;20016;-85
2022/01/17 13:14:20;;;;;;;27.55;5.70;;;9.00;99.90;;;;;;6202438;23;20094;-86
2022/01/17 13:16:47;;;;;;;21.98;5.45;;;9.00;99.90;;;;;;6204824;23;20020;-84
2022/01/17 13:19:15;;;;;;;19.50;4.47;;;8.90;99.90;;;;;;6205041;23;20108;-84
2022/01/17 13:21:43;;;;;;;21.63;4.65;;;8.90;99.90;;;;;;6201516;23;20020;-83
2022/01/17 13:26:45;;;;;;;26.02;5.18;;;8.90;99.90;;;;;;6232218;23;20513;-84
2022/01/17 13:29:12;;;;;;;23.83;5.20;;;8.80;99.90;;;;;;6206167;23;20735;-84
2022/01/17 13:31:39;;;;;;;24.10;5.68;;;8.90;99.90;;;;;;6180719;23;20462;-84
2022/01/17 13:34:20;;;;;;;23.13;5.18;;;9.00;99.90;;;;;;6180524;23;20062;-84